Time;durP1;ratioP1;P1;durP2;ratioP2;P2;SDS_P1;SDS_P2;PMS_P1;PMS_P2;Temp;Humidity;BMP_temperature;BMP_pressure;BME280_temperature;BME280_humidity;BME280_pressure;Samples;Min_cycle;Max_cycle;Signal;HPM_P1;HPM_P2
2023/09/23 00:01:33;;;;;;;1.15;0.70;;;;;;;;;;6166451;23;20030;-83
2023/09/23 00:04:01;;;;;;;0.90;0.50;;;;;;;;;;6189678;23;20024;-82
2023/09/23 00:06:31;;;;;;;1.95;0.70;;;;;;;;;;6191744;23;20016;-82
2023/09/23 00:09:00;;;;;;;0.68;0.60;;;;;;;;;;6217110;23;20036;-82
2023/09/23 00:11:28;;;;;;;2.00;0.80;;;;;;;;;;6218336;23;20039;-83
2023/09/23 00:13:58;;;;;;;0.93;0.73;;;;;;;;;;6216603;23;20340;-82
2023/09/23 00:16:25;;;;;;;0.88;0.82;;;;;;;;;;6214513;23;20020;-82
2023/09/23 00:18:53;;;;;;;4.53;0.90;;;;;;;;;;6215217;23;20019;-82
2023/09/23 00:21:21;;;;;;;3.95;1.00;;;;;;;;;;6188130;23;20025;-82
2023/09/23 00:23:48;;;;;;;1.42;0.73;;;;;;;;;;6189548;23;20111;-82
2023/09/23 00:26:17;;;;;;;4.05;1.02;;;;;;;;;;6215082;23;20023;-82
2023/09/23 00:28:48;;;;;;;2.45;1.08;;;;;;;;;;6188693;23;20017;-82
2023/09/23 00:31:15;;;;;;;0.85;0.75;;;;;;;;;;6187205;23;20030;-82
2023/09/23 00:33:43;;;;;;;2.28;0.90;;;;;;;;;;6223215;23;20020;-83
2023/09/23 00:36:10;;;;;;;1.25;0.95;;;;;;;;;;6187476;23;20020;-83
2023/09/23 00:38:41;;;;;;;1.77;1.65;;;;;;;;;;6185982;23;20013;-83
2023/09/23 00:41:08;;;;;;;1.75;0.90;;;;;;;;;;6187206;23;20017;-83
2023/09/23 00:43:40;;;;;;;1.45;0.90;;;;;;;;;;6186974;23;20017;-83
2023/09/23 00:46:08;;;;;;;1.50;0.80;;;;;;;;;;6213333;23;20013;-83
2023/09/23 00:48:39;;;;;;;1.25;0.85;;;;;;;;;;6190108;23;20019;-82
2023/09/23 00:51:11;;;;;;;4.93;1.63;;;;;;;;;;6190360;23;20030;-82
2023/09/23 00:53:42;;;;;;;3.10;0.82;;;;;;;;;;6191483;23;20024;-82
2023/09/23 00:56:12;;;;;;;2.53;1.10;;;;;;;;;;6190974;23;20028;-82
2023/09/23 00:58:42;;;;;;;1.67;1.00;;;;;;;;;;6192326;23;20023;-83
2023/09/23 01:01:14;;;;;;;2.03;1.15;;;;;;;;;;6191635;23;20021;-83
2023/09/23 01:03:42;;;;;;;1.83;1.00;;;;;;;;;;6212805;23;20020;-83
2023/09/23 01:06:14;;;;;;;1.52;1.00;;;;;;;;;;6188198;23;20016;-83
2023/09/23 01:08:41;;;;;;;1.00;0.75;;;;;;;;;;6186959;23;20019;-83
2023/09/23 01:11:09;;;;;;;1.13;0.63;;;;;;;;;;6187992;23;20349;-83
2023/09/23 01:13:37;;;;;;;2.13;0.95;;;;;;;;;;6211991;23;20013;-83
2023/09/23 01:16:12;;;;;;;2.25;1.00;;;;;;;;;;6219987;23;20021;-83
2023/09/23 01:18:40;;;;;;;5.10;1.75;;;;;;;;;;6222290;23;20016;-83
2023/09/23 01:21:09;;;;;;;0.95;0.63;;;;;;;;;;6212773;23;20009;-83
2023/09/23 01:23:43;;;;;;;1.15;0.65;;;;;;;;;;6212052;23;20009;-83
2023/09/23 01:26:11;;;;;;;1.10;0.70;;;;;;;;;;6219184;23;20019;-83
2023/09/23 01:28:41;;;;;;;2.85;1.00;;;;;;;;;;6215192;23;20032;-82
2023/09/23 01:31:08;;;;;;;1.15;0.73;;;;;;;;;;6192067;23;20017;-82
2023/09/23 01:33:38;;;;;;;1.15;0.68;;;;;;;;;;6218489;23;20427;-82
2023/09/23 01:36:09;;;;;;;2.15;1.10;;;;;;;;;;6193565;23;20369;-82
2023/09/23 01:38:43;;;;;;;2.05;1.05;;;;;;;;;;6228404;23;20028;-82
2023/09/23 01:41:10;;;;;;;1.88;0.88;;;;;;;;;;6230374;23;20020;-82
2023/09/23 01:43:37;;;;;;;3.33;1.00;;;;;;;;;;6217617;23;20024;-82
2023/09/23 01:46:06;;;;;;;2.45;0.95;;;;;;;;;;6222068;23;20013;-81
2023/09/23 01:48:36;;;;;;;1.08;0.70;;;;;;;;;;6190527;23;20035;-81
2023/09/23 01:51:09;;;;;;;2.60;1.10;;;;;;;;;;6192350;23;20021;-81
2023/09/23 01:53:39;;;;;;;3.50;1.33;;;;;;;;;;6227214;23;20012;-81
2023/09/23 01:56:09;;;;;;;1.15;1.05;;;;;;;;;;6216300;23;20020;-81
2023/09/23 01:58:39;;;;;;;5.43;1.23;;;;;;;;;;6216317;23;20667;-82
2023/09/23 02:01:09;;;;;;;2.38;1.42;;;;;;;;;;6190170;23;20017;-82
2023/09/23 02:03:39;;;;;;;2.10;0.80;;;;;;;;;;6191383;23;20035;-81
2023/09/23 02:06:06;;;;;;;1.77;1.20;;;;;;;;;;6191609;23;20016;-82
2023/09/23 02:08:35;;;;;;;1.55;1.00;;;;;;;;;;6216613;23;20020;-81
2023/09/23 02:11:03;;;;;;;1.63;0.95;;;;;;;;;;6217233;23;20017;-81
2023/09/23 02:13:36;;;;;;;0.73;0.70;;;;;;;;;;6192496;23;20027;-82
2023/09/23 02:16:04;;;;;;;2.03;1.65;;;;;;;;;;6191765;23;20023;-82
2023/09/23 02:18:35;;;;;;;6.63;1.25;;;;;;;;;;6216550;23;20027;-81
2023/09/23 02:21:04;;;;;;;3.72;1.15;;;;;;;;;;6228551;23;20024;-82
2023/09/23 02:23:32;;;;;;;3.60;1.20;;;;;;;;;;6217315;23;20016;-81
2023/09/23 02:26:01;;;;;;;0.70;0.63;;;;;;;;;;6216628;23;20023;-81
2023/09/23 02:28:28;;;;;;;1.30;1.00;;;;;;;;;;6192592;23;20020;-81
2023/09/23 02:30:57;;;;;;;2.03;0.90;;;;;;;;;;6216727;23;20360;-82
2023/09/23 02:33:26;;;;;;;1.38;1.02;;;;;;;;;;6192662;23;20024;-82
2023/09/23 02:35:53;;;;;;;1.90;1.00;;;;;;;;;;6191792;23;20020;-82
2023/09/23 02:38:25;;;;;;;1.33;1.10;;;;;;;;;;6216542;23;20021;-82
2023/09/23 02:40:54;;;;;;;0.98;0.88;;;;;;;;;;6218757;23;20019;-81
2023/09/23 02:43:21;;;;;;;1.65;1.35;;;;;;;;;;6190077;23;20031;-81
2023/09/23 02:46:01;;;;;;;2.17;1.48;;;;;;;;;;6215978;23;20452;-81
2023/09/23 02:48:31;;;;;;;1.65;1.30;;;;;;;;;;6214950;23;20031;-81
2023/09/23 02:51:03;;;;;;;0.82;0.77;;;;;;;;;;6191196;23;20027;-81
2023/09/23 02:53:32;;;;;;;0.93;0.80;;;;;;;;;;6191275;23;20025;-82
2023/09/23 02:56:05;;;;;;;2.75;1.23;;;;;;;;;;6222079;23;20027;-81
2023/09/23 02:58:38;;;;;;;0.98;0.88;;;;;;;;;;6192077;23;20024;-81
2023/09/23 03:01:14;;;;;;;1.45;0.85;;;;;;;;;;6191911;23;20024;-81
2023/09/23 03:03:41;;;;;;;4.07;1.20;;;;;;;;;;6193099;23;20027;-81
2023/09/23 03:06:14;;;;;;;3.42;1.17;;;;;;;;;;6223006;23;20407;-82
2023/09/23 03:08:47;;;;;;;3.58;1.88;;;;;;;;;;6191225;23;20017;-82
2023/09/23 03:11:18;;;;;;;1.85;1.08;;;;;;;;;;6190334;23;20016;-82
2023/09/23 03:13:45;;;;;;;2.40;1.00;;;;;;;;;;6216710;23;20016;-82
2023/09/23 03:16:28;;;;;;;2.30;1.00;;;;;;;;;;6192298;23;20043;-81
2023/09/23 03:19:10;;;;;;;1.88;0.90;;;;;;;;;;6191197;23;20039;-81
2023/09/23 03:21:41;;;;;;;1.15;0.90;;;;;;;;;;6227550;23;20016;-82
2023/09/23 03:24:11;;;;;;;2.58;0.90;;;;;;;;;;6226985;23;20012;-81
2023/09/23 03:26:40;;;;;;;1.25;0.98;;;;;;;;;;6221033;23;20027;-82
2023/09/23 03:29:08;;;;;;;1.65;1.17;;;;;;;;;;6189964;23;20012;-82
2023/09/23 03:31:42;;;;;;;1.10;0.80;;;;;;;;;;6191107;23;20476;-82
2023/09/23 03:34:14;;;;;;;;;;;;;;;;;;6192893;23;20021;-81
2023/09/23 03:36:42;;;;;;;1.30;0.80;;;;;;;;;;6191210;23;19926;-81
2023/09/23 03:39:17;;;;;;;3.50;1.40;;;;;;;;;;6191990;23;20017;-81
2023/09/23 03:41:48;;;;;;;2.95;1.23;;;;;;;;;;6192382;23;20031;-82
2023/09/23 03:44:18;;;;;;;2.08;0.93;;;;;;;;;;6217809;23;20016;-81
2023/09/23 03:46:48;;;;;;;0.80;0.80;;;;;;;;;;6192376;23;20027;-81
2023/09/23 03:49:15;;;;;;;1.20;1.10;;;;;;;;;;6191192;23;20467;-81
2023/09/23 03:51:48;;;;;;;1.70;1.05;;;;;;;;;;6216124;23;20023;-81
2023/09/23 03:54:17;;;;;;;4.28;1.20;;;;;;;;;;6217909;23;20017;-82
2023/09/23 03:56:44;;;;;;;1.20;0.90;;;;;;;;;;6220508;23;20016;-81
2023/09/23 03:59:14;;;;;;;1.38;1.00;;;;;;;;;;6192320;23;20013;-82
2023/09/23 04:01:42;;;;;;;1.15;0.90;;;;;;;;;;6167962;23;20024;-81
2023/09/23 04:04:10;;;;;;;2.38;0.88;;;;;;;;;;6192870;23;20020;-81
2023/09/23 04:06:40;;;;;;;3.05;1.52;;;;;;;;;;6192826;23;20353;-81
2023/09/23 04:09:10;;;;;;;3.83;1.40;;;;;;;;;;6191356;23;20020;-81
2023/09/23 04:11:39;;;;;;;2.88;1.42;;;;;;;;;;6226429;23;20022;-82
2023/09/23 04:14:07;;;;;;;2.65;1.33;;;;;;;;;;6192378;23;20025;-81
2023/09/23 04:16:36;;;;;;;2.05;0.80;;;;;;;;;;6222903;23;20019;-81
2023/09/23 04:19:06;;;;;;;1.67;1.30;;;;;;;;;;6217598;23;20023;-81
2023/09/23 04:21:37;;;;;;;1.30;1.00;;;;;;;;;;6216946;23;20020;-81
2023/09/23 04:24:06;;;;;;;1.35;1.10;;;;;;;;;;6192653;23;20021;-81
2023/09/23 04:26:34;;;;;;;1.08;0.98;;;;;;;;;;6216181;23;20413;-81
2023/09/23 04:29:01;;;;;;;2.55;1.60;;;;;;;;;;6216192;23;20016;-81
2023/09/23 04:31:29;;;;;;;3.75;1.85;;;;;;;;;;6191180;23;20027;-81
2023/09/23 04:33:56;;;;;;;4.00;1.23;;;;;;;;;;6191542;23;20028;-81
2023/09/23 04:36:26;;;;;;;1.52;1.40;;;;;;;;;;6223685;23;20013;-82
2023/09/23 04:38:55;;;;;;;1.63;0.90;;;;;;;;;;6218786;23;20027;-81
2023/09/23 04:41:25;;;;;;;3.97;1.45;;;;;;;;;;6230956;23;20023;-81
2023/09/23 04:43:54;;;;;;;2.92;1.20;;;;;;;;;;6195173;23;20025;-81
2023/09/23 04:46:22;;;;;;;1.65;1.02;;;;;;;;;;6225216;23;20020;-81
2023/09/23 04:48:49;;;;;;;2.25;1.08;;;;;;;;;;6220511;23;20025;-81
2023/09/23 04:51:17;;;;;;;1.00;0.93;;;;;;;;;;6195142;23;20016;-81
2023/09/23 04:53:46;;;;;;;2.70;1.25;;;;;;;;;;6218294;23;20036;-81
2023/09/23 04:56:17;;;;;;;1.67;1.23;;;;;;;;;;6221606;23;20019;-81
2023/09/23 04:58:45;;;;;;;2.17;1.42;;;;;;;;;;6195394;23;20021;-81
2023/09/23 05:01:14;;;;;;;2.28;1.42;;;;;;;;;;6196081;23;20020;-81
2023/09/23 05:03:42;;;;;;;3.38;1.60;;;;;;;;;;6193592;23;20024;-81
2023/09/23 05:06:11;;;;;;;2.25;1.15;;;;;;;;;;6195735;23;20508;-81
2023/09/23 05:08:39;;;;;;;1.40;1.30;;;;;;;;;;6221299;23;20487;-81
2023/09/23 05:11:06;;;;;;;2.45;1.20;;;;;;;;;;6196080;23;20019;-81
2023/09/23 05:13:38;;;;;;;3.67;0.98;;;;;;;;;;6222492;23;20019;-81
2023/09/23 05:16:07;;;;;;;1.40;1.02;;;;;;;;;;6195542;23;20039;-81
2023/09/23 05:18:35;;;;;;;2.72;1.02;;;;;;;;;;6232775;23;20019;-83
2023/09/23 05:21:04;;;;;;;1.33;1.00;;;;;;;;;;6220758;23;20016;-83
2023/09/23 05:23:35;;;;;;;1.92;1.17;;;;;;;;;;6195711;23;20017;-83
2023/09/23 05:26:04;;;;;;;1.77;0.98;;;;;;;;;;6221810;23;20388;-84
2023/09/23 05:28:34;;;;;;;2.95;1.13;;;;;;;;;;6229449;23;20471;-84
2023/09/23 05:31:04;;;;;;;2.13;1.10;;;;;;;;;;6197045;23;20021;-84
2023/09/23 05:33:33;;;;;;;3.92;1.50;;;;;;;;;;6220672;23;20030;-84
2023/09/23 05:36:00;;;;;;;2.90;1.13;;;;;;;;;;6220720;23;20021;-84
2023/09/23 05:38:30;;;;;;;2.28;2.08;;;;;;;;;;6219483;23;20046;-84
2023/09/23 05:41:02;;;;;;;2.05;1.17;;;;;;;;;;6220766;23;20023;-84
2023/09/23 05:43:31;;;;;;;1.42;1.10;;;;;;;;;;6230995;23;20021;-84
2023/09/23 05:46:06;;;;;;;1.67;0.80;;;;;;;;;;6217988;23;20030;-84
2023/09/23 05:48:36;;;;;;;1.70;1.40;;;;;;;;;;6193827;23;20027;-84
2023/09/23 05:51:06;;;;;;;1.27;0.93;;;;;;;;;;6219314;23;20019;-84
2023/09/23 05:53:34;;;;;;;3.25;1.60;;;;;;;;;;6219146;23;20330;-84
2023/09/23 05:56:12;;;;;;;1.48;1.00;;;;;;;;;;6200537;23;20025;-81
2023/09/23 05:58:53;;;;;;;;;;;;;;;;;;;;;
2023/09/23 06:02:22;;;;;;;;;;;;;;;;;;;;;
2023/09/23 06:05:25;;;;;;;1.92;0.88;;;;;;;;;;6183677;23;20017;-82
2023/09/23 06:08:20;;;;;;;4.47;1.92;;;;;;;;;;6152879;23;20021;-82
2023/09/23 06:11:14;;;;;;;2.05;1.50;;;;;;;;;;6189720;23;20017;-82
2023/09/23 06:13:58;;;;;;;1.77;1.27;;;;;;;;;;6190017;23;20028;-82
2023/09/23 06:16:52;;;;;;;2.00;1.10;;;;;;;;;;6184103;23;20028;-82
2023/09/23 06:19:58;;;;;;;1.25;1.00;;;;;;;;;;6065903;23;20022;-82
2023/09/23 06:22:53;;;;;;;1.48;1.30;;;;;;;;;;6146484;23;20001;-82
2023/09/23 06:25:53;;;;;;;1.42;1.10;;;;;;;;;;6160440;23;20001;-84
2023/09/23 06:28:23;;;;;;;9.30;1.20;;;;;;;;;;6154853;23;20008;-83
2023/09/23 06:30:54;;;;;;;1.80;1.27;;;;;;;;;;6165795;23;20016;-82
2023/09/23 06:33:24;;;;;;;2.08;1.08;;;;;;;;;;6154747;23;20032;-84
2023/09/23 08:29:08;;;;;;;;;;;;;;;;;;6125142;23;20029;-84
2023/09/23 08:31:38;;;;;;;3.13;0.98;;;;;;;;;;6098428;23;19923;-84
2023/09/23 08:34:09;;;;;;;2.72;0.70;;;;;;;;;;6074854;23;20029;-84
2023/09/23 08:36:40;;;;;;;1.92;0.93;;;;;;;;;;6098588;23;20025;-83
2023/09/23 08:39:09;;;;;;;17.33;1.33;;;;;;;;;;6098382;23;20065;-83
2023/09/23 08:41:39;;;;;;;3.10;0.77;;;;;;;;;;6108701;23;20014;-83
2023/09/23 08:44:10;;;;;;;2.38;1.20;;;;;;;;;;6075017;23;20018;-84
2023/09/23 10:20:40;;;;;;;5.10;1.73;;;;;;;;;;6171787;23;20036;-84
2023/09/23 10:23:11;;;;;;;2.15;1.92;;;;;;;;;;6163057;23;20017;-84
2023/09/23 10:25:42;;;;;;;4.13;1.20;;;;;;;;;;6140704;23;20021;-84
2023/09/23 10:28:21;;;;;;;1.55;0.88;;;;;;;;;;6188322;23;20024;-84
2023/09/23 10:31:06;;;;;;;1.02;0.68;;;;;;;;;;6197505;23;20012;-84
2023/09/23 10:33:35;;;;;;;2.20;0.80;;;;;;;;;;6187849;23;20020;-84
2023/09/23 10:36:05;;;;;;;4.00;0.63;;;;;;;;;;6162228;23;20496;-83
2023/09/23 10:38:34;;;;;;;1.30;0.82;;;;;;;;;;6197611;23;20019;-84
2023/09/23 10:41:04;;;;;;;1.23;0.65;;;;;;;;;;6186716;23;20453;-84
2023/09/23 10:43:32;;;;;;;1.88;1.42;;;;;;;;;;6185240;23;20016;-84
2023/09/23 10:46:01;;;;;;;2.70;0.90;;;;;;;;;;6187057;23;20019;-84
2023/09/23 10:48:31;;;;;;;1.33;0.90;;;;;;;;;;6187087;23;20017;-84
2023/09/23 10:50:58;;;;;;;3.30;1.08;;;;;;;;;;6186352;23;20021;-84
2023/09/23 10:53:30;;;;;;;2.45;0.90;;;;;;;;;;6186845;23;20015;-84
2023/09/23 10:56:01;;;;;;;0.73;0.63;;;;;;;;;;6188285;23;20017;-84
2023/09/23 10:58:29;;;;;;;1.10;0.63;;;;;;;;;;6197814;23;20028;-84
2023/09/23 11:00:57;;;;;;;1.42;0.90;;;;;;;;;;6186574;23;20020;-85
2023/09/23 11:03:28;;;;;;;3.88;0.80;;;;;;;;;;6187526;23;20055;-84
2023/09/23 11:05:56;;;;;;;3.13;1.23;;;;;;;;;;6161361;23;20043;-84
2023/09/23 11:08:23;;;;;;;3.75;1.40;;;;;;;;;;6187274;23;20021;-84
2023/09/23 11:10:52;;;;;;;1.33;0.60;;;;;;;;;;6213677;23;20019;-84
2023/09/23 11:13:19;;;;;;;1.23;0.73;;;;;;;;;;6196952;23;20009;-85
2023/09/23 11:15:48;;;;;;;1.30;0.60;;;;;;;;;;6213684;23;20016;-85
2023/09/23 11:18:18;;;;;;;3.58;1.30;;;;;;;;;;6213471;23;20017;-84
2023/09/23 11:20:46;;;;;;;1.52;0.95;;;;;;;;;;6207945;23;20460;-84
2023/09/23 11:23:18;;;;;;;0.57;0.57;;;;;;;;;;6211196;23;20017;-84
2023/09/23 11:25:48;;;;;;;2.63;1.03;;;;;;;;;;6212188;23;20076;-84
2023/09/23 11:28:19;;;;;;;2.28;0.60;;;;;;;;;;6187578;23;20021;-84
2023/09/23 11:30:47;;;;;;;2.67;1.30;;;;;;;;;;6187951;23;20020;-84
2023/09/23 11:34:08;;;;;;;3.83;1.20;;;;;;;;;;6223416;23;20024;-84
2023/09/23 11:36:35;;;;;;;0.93;0.75;;;;;;;;;;6213260;23;20461;-84
2023/09/23 11:39:06;;;;;;;2.72;1.08;;;;;;;;;;6213594;23;20017;-84
2023/09/23 11:41:33;;;;;;;0.98;0.95;;;;;;;;;;6188970;23;20016;-85
2023/09/23 11:44:05;;;;;;;1.40;1.15;;;;;;;;;;6191271;23;20111;-84
2023/09/23 12:14:01;;;;;;;2.08;1.10;;;;;;;;;;6231596;23;20011;-85
2023/09/23 13:12:20;;;;;;;1.27;0.65;;;;;;;;;;6112409;23;20022;-82
2023/09/23 13:14:47;;;;;;;3.10;0.80;;;;;;;;;;6076137;23;20542;-82
2023/09/23 13:17:17;;;;;;;1.20;0.70;;;;;;;;;;6126171;23;20018;-84
2023/09/23 13:19:44;;;;;;;1.67;0.88;;;;;;;;;;6077634;23;20017;-84
2023/09/23 13:22:14;;;;;;;0.75;0.73;;;;;;;;;;6074714;23;20026;-84
2023/09/23 13:24:41;;;;;;;6.13;0.85;;;;;;;;;;6078379;23;20033;-83
2023/09/23 13:27:08;;;;;;;1.60;0.82;;;;;;;;;;6100996;23;20017;-83
2023/09/23 13:29:37;;;;;;;1.27;0.70;;;;;;;;;;6077952;23;20018;-83
2023/09/23 13:32:04;;;;;;;0.85;0.50;;;;;;;;;;6078413;23;20029;-83
2023/09/23 13:34:31;;;;;;;2.25;0.90;;;;;;;;;;6078261;23;20033;-83
2023/09/23 13:37:02;;;;;;;1.23;0.95;;;;;;;;;;6077942;23;20497;-82
2023/09/23 13:39:29;;;;;;;3.60;1.00;;;;;;;;;;6100730;23;20025;-82
2023/09/23 13:41:57;;;;;;;8.18;1.35;;;;;;;;;;6078109;23;20022;-83
2023/09/23 13:44:26;;;;;;;1.13;0.85;;;;;;;;;;6078828;23;20588;-83
2023/09/23 13:46:57;;;;;;;3.80;0.80;;;;;;;;;;6078993;23;20028;-83
2023/09/23 13:49:27;;;;;;;1.00;0.80;;;;;;;;;;6079679;23;20029;-83
2023/09/23 13:51:57;;;;;;;2.20;1.33;;;;;;;;;;6078743;23;20029;-83
2023/09/23 13:54:24;;;;;;;6.45;1.25;;;;;;;;;;6078074;23;20018;-83
2023/09/23 13:56:52;;;;;;;1.20;1.02;;;;;;;;;;6128467;23;20018;-83
2023/09/23 13:59:19;;;;;;;2.67;1.13;;;;;;;;;;6079159;23;20346;-83
2023/09/23 14:01:49;;;;;;;1.95;0.90;;;;;;;;;;6078483;23;20029;-83
2023/09/23 14:04:20;;;;;;;3.70;1.30;;;;;;;;;;6079323;23;20021;-83
2023/09/23 14:06:47;;;;;;;1.13;0.50;;;;;;;;;;6078763;23;20022;-84
2023/09/23 14:09:14;;;;;;;6.00;1.02;;;;;;;;;;6077925;23;20457;-84
2023/09/23 14:11:44;;;;;;;1.00;0.70;;;;;;;;;;6128439;23;20018;-84
2023/09/23 14:14:13;;;;;;;4.80;1.27;;;;;;;;;;6126399;23;20014;-83
2023/09/23 14:16:40;;;;;;;1.10;0.90;;;;;;;;;;6131072;23;20021;-84
2023/09/23 14:19:08;;;;;;;1.27;0.90;;;;;;;;;;6128199;23;20014;-84
2023/09/23 14:21:38;;;;;;;1.65;0.50;;;;;;;;;;6125696;23;20024;-84
2023/09/23 14:24:09;;;;;;;1.05;0.60;;;;;;;;;;6126674;23;20024;-83
2023/09/23 14:26:36;;;;;;;1.95;0.85;;;;;;;;;;6126445;23;20025;-83
2023/09/23 14:29:05;;;;;;;1.67;0.98;;;;;;;;;;6126446;23;20030;-83
2023/09/23 14:31:34;;;;;;;2.65;1.13;;;;;;;;;;6126187;23;20018;-84
2023/09/23 14:34:04;;;;;;;1.48;0.73;;;;;;;;;;6126060;23;20018;-84
2023/09/23 14:57:05;;;;;;;0.97;0.77;;;;;;;;;;6179141;23;20301;-82
2023/09/23 14:59:37;;;;;;;2.97;1.27;;;;;;;;;;6201892;23;20243;-83
2023/09/23 15:02:07;;;;;;;0.82;0.70;;;;;;;;;;6223937;23;20024;-83
2023/09/23 15:04:35;;;;;;;1.75;1.02;;;;;;;;;;6165182;23;20344;-83
2023/09/23 15:07:02;;;;;;;1.25;0.80;;;;;;;;;;6189851;23;20511;-83
2023/09/23 15:09:32;;;;;;;1.58;1.00;;;;;;;;;;6166543;23;20021;-83
2023/09/23 15:12:02;;;;;;;3.53;0.80;;;;;;;;;;6168373;23;20027;-81
2023/09/23 15:14:30;;;;;;;2.47;1.08;;;;;;;;;;6167563;23;20020;-83
2023/09/23 15:16:58;;;;;;;2.22;1.13;;;;;;;;;;6191972;23;20021;-82
2023/09/23 15:19:25;;;;;;;0.98;0.40;;;;;;;;;;6168306;23;20021;-82
2023/09/23 15:21:54;;;;;;;0.75;0.60;;;;;;;;;;6167618;23;20019;-82
2023/09/23 15:24:21;;;;;;;3.17;1.02;;;;;;;;;;6167294;23;20020;-83
2023/09/23 15:26:48;;;;;;;1.90;0.75;;;;;;;;;;6168037;23;20027;-83
2023/09/23 15:29:15;;;;;;;1.10;0.70;;;;;;;;;;6168923;23;20017;-82
2023/09/23 15:31:44;;;;;;;2.60;1.17;;;;;;;;;;6192751;23;20023;-82
2023/09/23 15:34:11;;;;;;;1.58;1.13;;;;;;;;;;6169720;23;20027;-82
2023/09/23 15:55:01;;;;;;;1.07;0.90;;;;;;;;;;6192104;23;20017;-83
2023/09/23 15:57:29;;;;;;;5.88;1.77;;;;;;;;;;6167046;23;20017;-83
2023/09/23 15:59:59;;;;;;;4.28;1.25;;;;;;;;;;6166273;23;20021;-83
2023/09/23 16:02:28;;;;;;;4.20;1.48;;;;;;;;;;6191346;23;20020;-83
2023/09/23 16:04:55;;;;;;;1.67;1.05;;;;;;;;;;6219253;23;20493;-83
2023/09/23 17:12:55;;;;;;;5.57;1.35;;;;;;;;;;6226471;23;20017;-82
2023/09/23 17:15:23;;;;;;;1.48;0.90;;;;;;;;;;6196915;23;20500;-83
2023/09/23 17:17:52;;;;;;;1.88;1.20;;;;;;;;;;6171693;23;20024;-82
2023/09/23 17:20:20;;;;;;;7.55;1.80;;;;;;;;;;6195491;23;20012;-82
2023/09/23 17:22:47;;;;;;;4.57;1.20;;;;;;;;;;6193149;23;20031;-82
2023/09/23 17:25:14;;;;;;;5.13;2.13;;;;;;;;;;6193059;23;20446;-82
2023/09/23 17:27:42;;;;;;;3.85;1.40;;;;;;;;;;6195269;23;20032;-83
2023/09/23 17:30:12;;;;;;;2.10;0.80;;;;;;;;;;6194367;23;20013;-82
2023/09/23 17:32:41;;;;;;;1.60;1.13;;;;;;;;;;6171202;23;20035;-82
2023/09/23 17:35:09;;;;;;;3.28;1.52;;;;;;;;;;6196459;23;20271;-82
2023/09/23 17:37:36;;;;;;;3.60;1.98;;;;;;;;;;6195465;23;20023;-83
2023/09/23 17:40:04;;;;;;;1.52;1.10;;;;;;;;;;6222338;23;20027;-82
2023/09/23 17:42:31;;;;;;;3.50;1.83;;;;;;;;;;6171147;23;20020;-82
2023/09/23 17:44:58;;;;;;;2.50;1.25;;;;;;;;;;6170373;23;20017;-82
2023/09/23 18:15:10;;;;;;;3.15;1.50;;;;;;;;;;6194182;23;20024;-81
2023/09/23 18:17:41;;;;;;;3.67;1.80;;;;;;;;;;6230607;23;20023;-81
2023/09/23 18:20:12;;;;;;;3.65;2.05;;;;;;;;;;6192520;23;20059;-82
2023/09/23 18:22:42;;;;;;;2.15;1.30;;;;;;;;;;6168055;23;20047;-82
2023/09/23 18:25:11;;;;;;;2.83;1.85;;;;;;;;;;6167379;23;20017;-82
2023/09/23 18:27:39;;;;;;;2.10;1.70;;;;;;;;;;6168305;23;20013;-82
2023/09/23 18:30:11;;;;;;;3.55;1.52;;;;;;;;;;6192572;23;20031;-82
2023/09/23 18:32:38;;;;;;;3.17;1.73;;;;;;;;;;6229457;23;20016;-82
2023/09/23 18:35:09;;;;;;;2.60;2.05;;;;;;;;;;6167025;23;20024;-82
2023/09/23 18:37:37;;;;;;;2.38;2.08;;;;;;;;;;6167255;23;20027;-81
2023/09/23 18:40:09;;;;;;;3.42;1.55;;;;;;;;;;6191383;23;20020;-82
2023/09/23 18:42:39;;;;;;;2.33;1.70;;;;;;;;;;6192540;23;20020;-82
2023/09/23 18:45:07;;;;;;;2.13;1.30;;;;;;;;;;6192749;23;20019;-83
2023/09/23 18:47:37;;;;;;;4.10;1.27;;;;;;;;;;6192925;23;20021;-83
2023/09/23 18:50:06;;;;;;;1.60;1.25;;;;;;;;;;6218238;23;20340;-82
2023/09/23 18:52:35;;;;;;;1.40;1.10;;;;;;;;;;6228617;23;20012;-83
2023/09/23 18:55:03;;;;;;;1.73;1.45;;;;;;;;;;6191297;23;20035;-82
2023/09/23 18:57:32;;;;;;;2.28;1.55;;;;;;;;;;6192548;23;20318;-82
2023/09/23 18:59:59;;;;;;;2.10;1.13;;;;;;;;;;6191723;23;20019;-82
2023/09/23 19:02:30;;;;;;;1.92;1.70;;;;;;;;;;6192870;23;20024;-82
2023/09/23 19:25:02;;;;;;;3.78;3.40;;;;;;;;;;6192624;23;20476;-82
2023/09/23 19:27:30;;;;;;;6.20;5.20;;;;;;;;;;6161610;23;20023;-82
2023/09/23 19:29:59;;;;;;;4.47;3.63;;;;;;;;;;6186072;23;20013;-81
2023/09/23 19:32:27;;;;;;;4.57;3.70;;;;;;;;;;6222421;23;20016;-82
2023/09/23 19:34:54;;;;;;;5.55;3.83;;;;;;;;;;6186732;23;20012;-82
2023/09/23 19:37:24;;;;;;;5.72;4.35;;;;;;;;;;6213841;23;20021;-82
2023/09/23 19:39:53;;;;;;;14.00;8.93;;;;;;;;;;6186802;23;20432;-82
2023/09/23 19:42:22;;;;;;;4.05;3.65;;;;;;;;;;6161944;23;20021;-82
2023/09/23 19:44:49;;;;;;;6.57;4.05;;;;;;;;;;6185636;23;20024;-82
2023/09/23 19:47:17;;;;;;;5.03;3.92;;;;;;;;;;6186904;23;20024;-82
2023/09/23 19:49:46;;;;;;;7.65;5.38;;;;;;;;;;6213637;23;20017;-82
2023/09/23 19:52:16;;;;;;;5.43;4.55;;;;;;;;;;6213287;23;20019;-82
2023/09/23 19:54:47;;;;;;;4.70;3.45;;;;;;;;;;6213825;23;20435;-82
2023/09/23 19:57:20;;;;;;;4.90;3.60;;;;;;;;;;6162213;23;20012;-82
2023/09/23 19:59:49;;;;;;;4.32;3.60;;;;;;;;;;6186711;23;20016;-82
2023/09/23 20:02:16;;;;;;;2.60;2.13;;;;;;;;;;6161790;23;20020;-82
2023/09/23 20:04:45;;;;;;;6.97;2.47;;;;;;;;;;6161829;23;20016;-82
2023/09/23 20:07:13;;;;;;;2.65;2.15;;;;;;;;;;6160623;23;20024;-82
2023/09/23 20:09:40;;;;;;;2.25;1.95;;;;;;;;;;6187052;23;20035;-82
2023/09/23 20:12:10;;;;;;;6.35;2.45;;;;;;;;;;6187474;23;20023;-82
2023/09/23 20:14:38;;;;;;;5.95;2.20;;;;;;;;;;6212487;23;20031;-81
2023/09/23 20:17:08;;;;;;;3.28;2.00;;;;;;;;;;6185766;23;20023;-82
2023/09/23 20:19:35;;;;;;;3.53;1.90;;;;;;;;;;6186481;23;20013;-81
2023/09/23 20:22:05;;;;;;;2.53;1.73;;;;;;;;;;6196784;23;20013;-82
2023/09/23 20:24:33;;;;;;;2.55;1.48;;;;;;;;;;6160601;23;20032;-82
2023/09/23 20:27:06;;;;;;;2.75;2.33;;;;;;;;;;6186050;23;20024;-82
2023/09/23 20:29:33;;;;;;;3.63;2.08;;;;;;;;;;6186298;23;20012;-84
2023/09/23 20:32:01;;;;;;;8.65;2.10;;;;;;;;;;6186612;23;20342;-84
2023/09/23 20:34:34;;;;;;;3.22;1.40;;;;;;;;;;6194890;23;20017;-84
2023/09/23 20:37:01;;;;;;;1.98;1.52;;;;;;;;;;6185529;23;20012;-83
2023/09/23 20:39:28;;;;;;;4.30;1.65;;;;;;;;;;6212633;23;20032;-84
2023/09/23 20:41:58;;;;;;;3.67;2.50;;;;;;;;;;6186242;23;20463;-84
2023/09/23 20:44:25;;;;;;;6.70;2.35;;;;;;;;;;6184433;23;20719;-84
2023/09/23 20:46:55;;;;;;;4.25;1.77;;;;;;;;;;6186700;23;20017;-84
2023/09/23 20:49:23;;;;;;;4.20;2.13;;;;;;;;;;6161131;23;20016;-84
2023/09/23 20:51:51;;;;;;;3.28;2.13;;;;;;;;;;6161442;23;20043;-84
2023/09/23 20:54:19;;;;;;;2.13;1.58;;;;;;;;;;6185858;23;20035;-84
2023/09/23 20:56:49;;;;;;;4.78;2.28;;;;;;;;;;6213059;23;20009;-84
2023/09/23 20:59:18;;;;;;;2.13;1.55;;;;;;;;;;6186084;23;20013;-84
2023/09/23 21:01:45;;;;;;;2.42;1.73;;;;;;;;;;6160934;23;20027;-84
2023/09/23 21:04:15;;;;;;;2.17;1.83;;;;;;;;;;6211737;23;20464;-84
2023/09/23 21:06:47;;;;;;;2.67;2.13;;;;;;;;;;6216643;23;20020;-84
2023/09/23 21:09:16;;;;;;;2.90;2.63;;;;;;;;;;6213046;23;20019;-84
2023/09/23 21:11:43;;;;;;;2.70;1.95;;;;;;;;;;6223335;23;20039;-84
2023/09/23 21:14:11;;;;;;;3.67;2.08;;;;;;;;;;6184516;23;20017;-84
2023/09/23 21:16:40;;;;;;;2.25;1.80;;;;;;;;;;6184536;23;20028;-84
2023/09/23 21:19:08;;;;;;;3.60;1.80;;;;;;;;;;6186690;23;20016;-84
2023/09/23 21:21:38;;;;;;;3.60;2.60;;;;;;;;;;6188922;23;20495;-84
2023/09/23 21:24:10;;;;;;;3.70;3.00;;;;;;;;;;6215155;23;20035;-84
2023/09/23 21:26:39;;;;;;;5.85;2.00;;;;;;;;;;6187109;23;20480;-84
2023/09/23 21:29:07;;;;;;;2.53;1.85;;;;;;;;;;6162969;23;20021;-84
2023/09/23 21:31:34;;;;;;;2.20;1.95;;;;;;;;;;6188183;23;20019;-84
2023/09/23 21:34:07;;;;;;;2.22;1.90;;;;;;;;;;6224291;23;20027;-84
2023/09/23 21:36:38;;;;;;;2.90;2.03;;;;;;;;;;6187044;23;20091;-84
2023/09/23 21:39:05;;;;;;;2.72;2.03;;;;;;;;;;6187726;23;20016;-84
2023/09/23 21:41:35;;;;;;;2.95;2.13;;;;;;;;;;6188158;23;20465;-84
2023/09/23 21:44:06;;;;;;;3.38;1.83;;;;;;;;;;6163179;23;20051;-84
2023/09/23 22:03:30;;;;;;;3.50;2.40;;;;;;;;;;6196223;23;20437;-84
2023/09/23 22:05:57;;;;;;;2.00;1.50;;;;;;;;;;6165018;23;20019;-83
2023/09/23 22:08:25;;;;;;;3.13;1.92;;;;;;;;;;6188685;23;20337;-84
2023/09/23 22:10:55;;;;;;;3.17;2.05;;;;;;;;;;6188099;23;20020;-84
2023/09/23 22:13:25;;;;;;;3.33;2.47;;;;;;;;;;6215453;23;20016;-83
2023/09/23 22:15:52;;;;;;;5.13;2.05;;;;;;;;;;6221698;23;20013;-84
2023/09/23 22:18:19;;;;;;;3.67;1.73;;;;;;;;;;6161320;23;20033;-84
2023/09/23 22:20:51;;;;;;;3.10;2.03;;;;;;;;;;6162455;23;20016;-84
2023/09/23 22:23:19;;;;;;;3.03;2.72;;;;;;;;;;6162687;23;20028;-83
2023/09/23 22:25:49;;;;;;;2.80;1.63;;;;;;;;;;6187681;23;20028;-83
2023/09/23 22:28:17;;;;;;;2.72;2.28;;;;;;;;;;6162691;23;20329;-83
2023/09/23 22:30:45;;;;;;;2.45;2.17;;;;;;;;;;6211689;23;20460;-83
2023/09/23 22:33:17;;;;;;;6.22;1.98;;;;;;;;;;6213823;23;20367;-83
2023/09/23 22:35:46;;;;;;;3.13;1.92;;;;;;;;;;6187912;23;20032;-84
2023/09/23 22:38:19;;;;;;;3.10;2.25;;;;;;;;;;6162813;23;20016;-83
2023/09/23 22:40:49;;;;;;;2.70;2.33;;;;;;;;;;6162151;23;20024;-83
2023/09/23 22:43:21;;;;;;;2.42;1.80;;;;;;;;;;6222502;23;20028;-83